Belgrade, MO (63622)

5:48 AM CDT on March 30, 2017 (GMT -0500)
B Nixon, Hopewell | | Change Station

Elev 853 ft 37.89 °N, 90.70 °W | Updated 14 seconds ago

Overcast
Overcast
59.7 °F
Feels Like 59.7 °F
N
1.7
Wind Variable Wind from SSW

Today
High -- | Low -- °F
--% Chance of Precip.
Yesterday
High -- | Low -- °F
Precip. -- in
Pressure 29.62 in
Visibility 10.0 miles
Clouds Few 12000 ft
Dew Point 59 °F
Humidity 99%
Rainfall 0.18 in
Snow Depth Not available.
6:51 AM 7:24 PM
Waxing Crescent, 8% visible
METAR KFAM 300956Z AUTO 15005KT 10SM FEW120 15/14 A2963 RMK AO2 SLP028 T01500139
Pressure 29.62 in
Visibility 10.0 miles
Clouds Few 12000 ft
Dew Point 59 °F
Humidity 99%
Rainfall 0.18 in
Snow Depth Not available.
6:51 AM 7:24 PM
Waxing Crescent, 8% visible
METAR KFAM 300956Z AUTO 15005KT 10SM FEW120 15/14 A2963 RMK AO2 SLP028 T01500139

Get Severe Weather Alerts

Thanks for signing up!

Be on the lookout for a verification email in your inbox.

You'll start receiving the daily forecast at 8 AM.

×

10-Day Weather Forecast

Almanac

Astronomy

Mar. 30, 2017 Rise Set
Actual Time
Civil Twilight
Nautical Twilight
Astronomical Twilight
Moon
Length of Visible Light
Length of Day
Tomorrow will be .
, % of the Moon is Illuminated

Today's Extremes

State Highs State Lows

Community

WunderPhotos

Upload Photos

1,962,540 photos uploaded!

WunderBlog® & News

Nearby

Air Quality

  Air Quality AQ Index Pollutant
Not available.

Snow Depth

Station Depth Elevation

Earthquake Activity

City Distance Mag. Time & Date
Minimum magnitude displayed is 2.5.

Earthquake Activity

City Distance Mag. Time & Date
Minimum magnitude displayed is 2.5.

Coastal Water Temperatures

Place Temperature

Stations

Nearby Weather Stations

Station Location Temp. Windchill Dew Point Humidity Wind Precip. Elev Updated Type
                   

Watches & Warnings

There are currently no watches in effect.